CDT,Max TemperatureF,Mean TemperatureF,Min TemperatureF,Max Dew PointF,MeanDew PointF,Min DewpointF,Max Humidity, Mean Humidity, Min Humidity, Max Sea Level PressureIn, Mean Sea Level PressureIn, Min Sea Level PressureIn, Max VisibilityMiles, Mean VisibilityMiles, Min VisibilityMiles, Max Wind SpeedMPH, Mean Wind SpeedMPH, Max Gust SpeedMPH,PrecipitationIn, CloudCover, Events, WindDirDegrees
2013-3-1,75,63,51,42,28,12,59,34,9,30.32,30.24,30.15,10,10,10,15,4,21,0.00,0,,222
2013-3-2,75,61,47,36,27,19,54,34,13,30.43,30.32,30.26,10,10,10,18,8,25,T,0,,339
2013-3-3,80,62,44,53,41,34,76,47,18,30.32,30.18,30.04,10,10,10,24,11,37,0.00,0,,150
2013-3-4,92,76,59,59,53,41,78,48,18,30.01,29.87,29.74,10,10,10,22,16,32,0.00,0,,159
2013-3-5,75,65,54,60,45,27,93,58,22,30.31,30.10,29.82,10,10,4,37,13,44,0.00,2,,5
2013-3-6,74,62,49,49,34,23,67,44,20,30.40,30.30,30.21,10,10,2,15,8,20,0.00,0,,49
2013-3-7,81,68,55,63,57,48,86,66,45,30.20,30.12,30.05,10,10,10,25,13,31,0.00,4,,110
2013-3-8,82,73,64,65,63,61,93,72,51,30.09,30.02,29.95,10,10,10,30,16,37,T,5,,133
2013-3-9,88,80,71,66,65,63,84,64,43,29.99,29.81,29.66,10,10,10,33,22,44,T,6,Rain,151
2013-3-10,85,75,65,66,51,28,84,50,15,30.05,29.80,29.62,10,10,10,30,15,47,0.00,3,,20
2013-3-11,80,66,51,37,25,11,51,30,8,30.20,30.10,30.00,10,10,10,20,9,26,0.00,0,,344
2013-3-12,82,66,49,45,39,28,71,43,15,30.23,30.13,30.06,10,10,10,17,7,23,0.00,0,,128
2013-3-13,82,66,50,52,48,44,83,56,28,30.38,30.30,30.24,10,10,10,18,7,23,0.00,0,,102
2013-3-14,82,70,57,56,52,45,86,58,30,30.37,30.29,30.21,10,10,9,22,9,33,0.00,1,,129
2013-3-15,83,69,54,57,53,44,93,62,31,30.26,30.14,30.03,10,10,10,25,14,33,0.00,0,,140
2013-3-16,83,73,63,64,60,56,84,63,42,30.03,29.88,29.77,10,10,10,29,18,36,0.00,1,,148
2013-3-17,93,80,66,66,63,59,87,60,32,29.81,29.72,29.62,10,10,9,18,13,26,0.00,1,,147
2013-3-18,100,84,67,67,61,37,93,54,14,29.83,29.75,29.70,10,8,4,20,8,24,0.00,3,,121
2013-3-19,93,81,68,68,65,62,90,64,38,29.97,29.86,29.73,10,8,4,18,9,28,0.00,4,,83
2013-3-20,80,73,65,67,61,54,79,62,45,30.11,30.00,29.83,10,10,5,24,14,35,T,6,Rain,60
2013-3-21,82,71,59,67,61,54,84,69,54,30.03,29.82,29.65,10,10,10,22,13,26,T,7,,134
2013-3-22,91,82,73,70,68,66,87,67,47,29.70,29.65,29.57,10,10,9,22,11,29,T,6,Rain,135
2013-3-23,102,87,71,70,66,43,93,54,14,29.70,29.63,29.52,10,7,5,23,8,29,0.00,5,,88
2013-3-24,77,69,60,65,39,17,93,52,11,30.07,29.94,29.70,10,8,5,32,13,38,0.00,3,,3
2013-3-25,71,62,52,43,37,26,51,39,27,30.33,30.21,30.07,10,10,10,21,11,26,0.00,3,Rain,49
2013-3-26,71,64,56,40,37,32,51,40,28,30.43,30.35,30.31,10,10,10,17,11,23,0.00,7,,76
2013-3-27,72,66,60,56,49,41,68,59,49,30.33,30.23,30.16,10,10,10,23,13,29,0.00,8,,119
2013-3-28,76,69,62,61,59,56,84,69,54,30.17,30.13,30.09,10,10,10,23,13,26,T,6,,128
2013-3-29,86,75,64,64,61,56,87,62,37,30.15,30.09,30.00,10,10,9,26,15,31,0.00,5,,130
2013-3-30,88,79,70,67,65,63,90,68,45,30.07,30.01,29.91,10,10,10,22,13,26,0.00,6,,141
2013-3-31,92,81,69,67,66,64,90,67,44,29.97,29.87,29.74,10,10,10,22,15,32,0.00,3,,139